Aviation Digital Data Service (ADDS)

Output produced by METARs form (0937 UTC 22 October 2014)
found at http://aviationweather.gov/adds/metars/
 
KAND 220523Z 2206/2306 34004KT P6SM SKC 
     FM221000 34003KT P6SM SKC